sensor_id;sensor_type;location;lat;lon;timestamp;pressure;altitude;pressure_sealevel;temperature;humidity
21102;BME280;10709;49.006;12.100;2023-03-19T00:02:00;48702.94;;;-146.00;71.76
21102;BME280;10709;49.006;12.100;2023-03-19T00:04:42;48675.50;;;-146.00;71.54
21102;BME280;10709;49.006;12.100;2023-03-19T00:07:08;48718.59;;;-146.00;71.93
21102;BME280;10709;49.006;12.100;2023-03-19T00:09:35;48706.84;;;-146.00;71.58
21102;BME280;10709;49.006;12.100;2023-03-19T00:12:01;48706.84;;;-146.00;71.61
21102;BME280;10709;49.006;12.100;2023-03-19T00:14:28;48695.09;;;-146.00;71.92
21102;BME280;10709;49.006;12.100;2023-03-19T00:16:55;48695.09;;;-146.00;71.67
21102;BME280;10709;49.006;12.100;2023-03-19T00:19:22;48699.03;;;-146.00;71.59
21102;BME280;10709;49.006;12.100;2023-03-19T00:21:48;48681.41;;;-146.00;71.80
21102;BME280;10709;49.006;12.100;2023-03-19T00:24:15;48679.44;;;-146.00;72.24
21102;BME280;10709;49.006;12.100;2023-03-19T00:26:42;48722.53;;;-146.00;71.88
21102;BME280;10709;49.006;12.100;2023-03-19T00:29:09;48710.78;;;-146.00;72.04
21102;BME280;10709;49.006;12.100;2023-03-19T00:31:36;48699.03;;;-146.00;72.20
21102;BME280;10709;49.006;12.100;2023-03-19T00:34:02;48699.03;;;-146.00;72.16
21102;BME280;10709;49.006;12.100;2023-03-19T00:36:29;48691.19;;;-146.00;72.23
21102;BME280;10709;49.006;12.100;2023-03-19T00:38:56;48695.09;;;-146.00;72.15
21102;BME280;10709;49.006;12.100;2023-03-19T00:41:23;48710.78;;;-146.00;72.65
21102;BME280;10709;49.006;12.100;2023-03-19T00:43:56;48710.78;;;-146.00;72.69
21102;BME280;10709;49.006;12.100;2023-03-19T00:46:24;48697.06;;;-146.00;72.76
21102;BME280;10709;49.006;12.100;2023-03-19T00:48:50;48718.59;;;-146.00;73.32
21102;BME280;10709;49.006;12.100;2023-03-19T00:51:22;48702.94;;;-146.00;73.49
21102;BME280;10709;49.006;12.100;2023-03-19T00:53:48;48702.94;;;-146.00;73.38
21102;BME280;10709;49.006;12.100;2023-03-19T00:56:15;48687.28;;;-146.00;73.13
21102;BME280;10709;49.006;12.100;2023-03-19T00:58:44;48695.09;;;-146.00;73.25
21102;BME280;10709;49.006;12.100;2023-03-19T01:01:12;48702.94;;;-146.00;73.55
21102;BME280;10709;49.006;12.100;2023-03-19T01:03:39;48691.19;;;-146.00;73.05
21102;BME280;10709;49.006;12.100;2023-03-19T01:06:06;48699.03;;;-146.00;73.51
21102;BME280;10709;49.006;12.100;2023-03-19T01:08:32;48695.09;;;-146.00;73.00
21102;BME280;10709;49.006;12.100;2023-03-19T01:11:25;48712.72;;;-146.00;73.76
21102;BME280;10709;49.006;12.100;2023-03-19T01:13:52;48712.72;;;-146.00;73.31
21102;BME280;10709;49.006;12.100;2023-03-19T01:16:19;48702.94;;;-146.00;73.77
21102;BME280;10709;49.006;12.100;2023-03-19T01:18:45;48697.06;;;-146.00;73.73
21102;BME280;10709;49.006;12.100;2023-03-19T01:21:12;48714.69;;;-146.00;73.70
21102;BME280;10709;49.006;12.100;2023-03-19T01:23:39;48695.09;;;-146.00;73.49
21102;BME280;10709;49.006;12.100;2023-03-19T01:26:06;48683.34;;;-146.00;73.95
21102;BME280;10709;49.006;12.100;2023-03-19T01:28:32;48710.78;;;-146.00;74.49
21102;BME280;10709;49.006;12.100;2023-03-19T01:31:00;48687.28;;;-146.00;74.74
21102;BME280;10709;49.006;12.100;2023-03-19T01:33:30;48718.59;;;-146.00;74.65
21102;BME280;10709;49.006;12.100;2023-03-19T01:35:57;48699.03;;;-146.00;74.49
21102;BME280;10709;49.006;12.100;2023-03-19T01:38:24;48700.97;;;-146.00;74.29
21102;BME280;10709;49.006;12.100;2023-03-19T01:40:51;48706.84;;;-146.00;74.60
21102;BME280;10709;49.006;12.100;2023-03-19T01:43:20;48687.28;;;-146.00;74.87
21102;BME280;10709;49.006;12.100;2023-03-19T01:45:57;48722.53;;;-146.00;74.69
21102;BME280;10709;49.006;12.100;2023-03-19T01:48:27;48689.22;;;-146.00;74.69
21102;BME280;10709;49.006;12.100;2023-03-19T01:50:55;48685.31;;;-146.00;74.36
21102;BME280;10709;49.006;12.100;2023-03-19T01:53:25;48697.06;;;-146.00;74.58
21102;BME280;10709;49.006;12.100;2023-03-19T01:55:57;48695.09;;;-146.00;74.53
21102;BME280;10709;49.006;12.100;2023-03-19T01:58:25;48700.97;;;-146.00;74.69
21102;BME280;10709;49.006;12.100;2023-03-19T02:00:52;48710.78;;;-146.00;74.56
21102;BME280;10709;49.006;12.100;2023-03-19T02:03:18;48706.84;;;-146.00;74.80
21102;BME280;10709;49.006;12.100;2023-03-19T02:05:46;48697.06;;;-146.00;74.63
21102;BME280;10709;49.006;12.100;2023-03-19T02:08:16;48683.34;;;-146.00;74.84
21102;BME280;10709;49.006;12.100;2023-03-19T02:10:45;48699.03;;;-146.00;74.99
21102;BME280;10709;49.006;12.100;2023-03-19T02:13:12;48683.34;;;-146.00;74.91
21102;BME280;10709;49.006;12.100;2023-03-19T02:15:39;48744.06;;;-146.00;75.26
21102;BME280;10709;49.006;12.100;2023-03-19T02:18:06;48702.94;;;-146.00;75.07
21102;BME280;10709;49.006;12.100;2023-03-19T02:20:38;48712.72;;;-146.00;74.84
21102;BME280;10709;49.006;12.100;2023-03-19T02:28:24;48714.69;;;-146.00;76.16
21102;BME280;10709;49.006;12.100;2023-03-19T02:30:51;48734.28;;;-146.00;76.50
21102;BME280;10709;49.006;12.100;2023-03-19T02:33:18;48734.28;;;-146.00;76.29
21102;BME280;10709;49.006;12.100;2023-03-19T02:35:46;48730.38;;;-146.00;76.13
21102;BME280;10709;49.006;12.100;2023-03-19T02:38:14;48722.53;;;-146.00;76.26
21102;BME280;10709;49.006;12.100;2023-03-19T02:40:59;48714.69;;;-146.00;76.75
21102;BME280;10709;49.006;12.100;2023-03-19T02:43:26;48695.09;;;-146.00;76.82
21102;BME280;10709;49.006;12.100;2023-03-19T02:45:53;48691.19;;;-146.00;76.44
21102;BME280;10709;49.006;12.100;2023-03-19T02:48:19;48722.53;;;-146.00;76.37
21102;BME280;10709;49.006;12.100;2023-03-19T02:50:46;48746.03;;;-146.00;76.42
21102;BME280;10709;49.006;12.100;2023-03-19T02:53:12;48710.78;;;-146.00;76.45
21102;BME280;10709;49.006;12.100;2023-03-19T02:55:39;48738.19;;;-146.00;76.29
21102;BME280;10709;49.006;12.100;2023-03-19T02:58:06;48708.81;;;-146.00;76.42
21102;BME280;10709;49.006;12.100;2023-03-19T03:00:32;48718.59;;;-146.00;76.35
21102;BME280;10709;49.006;12.100;2023-03-19T03:02:59;48726.44;;;-146.00;76.54
21102;BME280;10709;49.006;12.100;2023-03-19T03:05:26;48732.31;;;-146.00;76.18
21102;BME280;10709;49.006;12.100;2023-03-19T03:07:53;48710.78;;;-146.00;76.44
21102;BME280;10709;49.006;12.100;2023-03-19T03:10:19;48693.16;;;-146.00;76.40
21102;BME280;10709;49.006;12.100;2023-03-19T03:12:46;48695.09;;;-146.00;76.68
21102;BME280;10709;49.006;12.100;2023-03-19T03:15:12;48689.22;;;-146.00;76.57
21102;BME280;10709;49.006;12.100;2023-03-19T03:17:40;48699.03;;;-146.00;76.85
21102;BME280;10709;49.006;12.100;2023-03-19T03:20:08;48726.44;;;-146.00;76.72
21102;BME280;10709;49.006;12.100;2023-03-19T03:22:37;48722.53;;;-146.00;77.03
21102;BME280;10709;49.006;12.100;2023-03-19T03:25:04;48695.09;;;-146.00;76.74
21102;BME280;10709;49.006;12.100;2023-03-19T03:27:32;48714.69;;;-146.00;76.88
21102;BME280;10709;49.006;12.100;2023-03-19T03:29:58;48697.06;;;-146.00;77.19
21102;BME280;10709;49.006;12.100;2023-03-19T03:32:24;48722.53;;;-146.00;77.53
21102;BME280;10709;49.006;12.100;2023-03-19T03:34:51;48706.84;;;-146.00;77.40
21102;BME280;10709;49.006;12.100;2023-03-19T03:37:18;48730.38;;;-146.00;77.19
21102;BME280;10709;49.006;12.100;2023-03-19T03:39:44;48718.59;;;-146.00;77.44
21102;BME280;10709;49.006;12.100;2023-03-19T03:42:11;48730.38;;;-146.00;77.82
21102;BME280;10709;49.006;12.100;2023-03-19T03:44:38;48730.38;;;-146.00;77.50
21102;BME280;10709;49.006;12.100;2023-03-19T03:47:05;48742.13;;;-146.00;77.75
21102;BME280;10709;49.006;12.100;2023-03-19T03:49:31;48706.84;;;-146.00;77.64
21102;BME280;10709;49.006;12.100;2023-03-19T03:51:58;48753.88;;;-146.00;77.94
21102;BME280;10709;49.006;12.100;2023-03-19T03:54:24;48757.78;;;-146.00;79.19
21102;BME280;10709;49.006;12.100;2023-03-19T03:56:51;48734.28;;;-146.00;79.02
21102;BME280;10709;49.006;12.100;2023-03-19T03:59:17;48753.88;;;-146.00;78.94
21102;BME280;10709;49.006;12.100;2023-03-19T04:01:45;48763.66;;;-146.00;78.55
21102;BME280;10709;49.006;12.100;2023-03-19T04:04:11;48712.72;;;-146.00;78.36
21102;BME280;10709;49.006;12.100;2023-03-19T04:06:38;48746.03;;;-146.00;78.80
21102;BME280;10709;49.006;12.100;2023-03-19T04:09:05;48726.44;;;-146.00;78.82
21102;BME280;10709;49.006;12.100;2023-03-19T04:11:34;48722.53;;;-146.00;79.56
21102;BME280;10709;49.006;12.100;2023-03-19T04:14:00;48769.53;;;-146.00;79.66
21102;BME280;10709;49.006;12.100;2023-03-19T04:16:28;48738.19;;;-146.00;79.63
21102;BME280;10709;49.006;12.100;2023-03-19T04:18:55;48746.03;;;-146.00;80.70
21102;BME280;10709;49.006;12.100;2023-03-19T04:21:21;48777.38;;;-146.00;80.11
21102;BME280;10709;49.006;12.100;2023-03-19T04:23:47;48789.13;;;-146.00;80.42
21102;BME280;10709;49.006;12.100;2023-03-19T04:26:14;48761.72;;;-146.00;79.60
21102;BME280;10709;49.006;12.100;2023-03-19T04:28:41;48746.03;;;-146.00;80.04
21102;BME280;10709;49.006;12.100;2023-03-19T04:31:07;48744.06;;;-146.00;80.02
21102;BME280;10709;49.006;12.100;2023-03-19T04:33:35;48777.38;;;-146.00;80.17
21102;BME280;10709;49.006;12.100;2023-03-19T04:36:02;48791.09;;;-146.00;79.53
21102;BME280;10709;49.006;12.100;2023-03-19T04:38:29;48751.91;;;-146.00;79.57
21102;BME280;10709;49.006;12.100;2023-03-19T04:40:57;48785.22;;;-146.00;79.80
21102;BME280;10709;49.006;12.100;2023-03-19T04:43:23;48753.88;;;-146.00;79.65
21102;BME280;10709;49.006;12.100;2023-03-19T04:45:50;48769.53;;;-146.00;79.63
21102;BME280;10709;49.006;12.100;2023-03-19T04:48:17;48753.88;;;-146.00;79.78
21102;BME280;10709;49.006;12.100;2023-03-19T04:50:45;48746.03;;;-146.00;79.36
21102;BME280;10709;49.006;12.100;2023-03-19T04:53:12;48765.63;;;-146.00;79.67
21102;BME280;10709;49.006;12.100;2023-03-19T04:55:39;48777.38;;;-146.00;79.86
21102;BME280;10709;49.006;12.100;2023-03-19T04:58:06;48751.91;;;-146.00;79.44
21102;BME280;10709;49.006;12.100;2023-03-19T05:00:34;48781.31;;;-146.00;79.51
21102;BME280;10709;49.006;12.100;2023-03-19T05:03:01;48753.88;;;-146.00;79.69
21102;BME280;10709;49.006;12.100;2023-03-19T05:05:27;48767.59;;;-146.00;80.06
21102;BME280;10709;49.006;12.100;2023-03-19T05:07:54;48785.22;;;-146.00;80.28
21102;BME280;10709;49.006;12.100;2023-03-19T05:10:22;48771.50;;;-146.00;79.86
21102;BME280;10709;49.006;12.100;2023-03-19T05:12:49;48787.19;;;-146.00;80.04
21102;BME280;10709;49.006;12.100;2023-03-19T05:15:15;48738.19;;;-146.00;80.40
21102;BME280;10709;49.006;12.100;2023-03-19T05:17:42;48769.53;;;-146.00;80.08
21102;BME280;10709;49.006;12.100;2023-03-19T05:20:09;48789.13;;;-146.00;80.02
21102;BME280;10709;49.006;12.100;2023-03-19T05:22:37;48757.78;;;-146.00;80.14
21102;BME280;10709;49.006;12.100;2023-03-19T05:25:04;48761.72;;;-146.00;80.27
21102;BME280;10709;49.006;12.100;2023-03-19T05:27:32;48781.31;;;-146.00;80.47
21102;BME280;10709;49.006;12.100;2023-03-19T05:29:58;48742.13;;;-146.00;80.20
21102;BME280;10709;49.006;12.100;2023-03-19T05:32:27;48783.25;;;-146.00;80.50
21102;BME280;10709;49.006;12.100;2023-03-19T05:34:54;48759.75;;;-146.00;80.13
21102;BME280;10709;49.006;12.100;2023-03-19T05:37:20;48757.78;;;-146.00;80.41
21102;BME280;10709;49.006;12.100;2023-03-19T05:39:47;48757.78;;;-146.00;79.92
21102;BME280;10709;49.006;12.100;2023-03-19T05:42:13;48761.72;;;-146.00;80.13
21102;BME280;10709;49.006;12.100;2023-03-19T05:44:40;48765.63;;;-146.00;80.52
21102;BME280;10709;49.006;12.100;2023-03-19T05:47:07;48746.03;;;-146.00;80.87
21102;BME280;10709;49.006;12.100;2023-03-19T05:49:35;48793.06;;;-146.00;80.16
21102;BME280;10709;49.006;12.100;2023-03-19T05:52:02;48777.38;;;-146.00;80.47
21102;BME280;10709;49.006;12.100;2023-03-19T05:54:29;48808.72;;;-146.00;81.66
21102;BME280;10709;49.006;12.100;2023-03-19T05:56:56;48781.31;;;-146.00;80.95
21102;BME280;10709;49.006;12.100;2023-03-19T05:59:22;48777.38;;;-146.00;81.65
21102;BME280;10709;49.006;12.100;2023-03-19T06:01:49;48767.59;;;-146.00;81.60
21102;BME280;10709;49.006;12.100;2023-03-19T06:04:16;48796.97;;;-146.00;81.15
21102;BME280;10709;49.006;12.100;2023-03-19T06:06:42;48812.63;;;-146.00;81.62
21102;BME280;10709;49.006;12.100;2023-03-19T06:09:09;48808.72;;;-146.00;82.27
21102;BME280;10709;49.006;12.100;2023-03-19T06:11:35;48775.41;;;-146.00;82.88
21102;BME280;10709;49.006;12.100;2023-03-19T06:14:05;48820.47;;;-146.00;82.19
21102;BME280;10709;49.006;12.100;2023-03-19T06:16:32;48789.13;;;-146.00;82.39
21102;BME280;10709;49.006;12.100;2023-03-19T06:18:58;48816.56;;;-146.00;81.89
21102;BME280;10709;49.006;12.100;2023-03-19T06:21:25;48777.38;;;-146.00;81.84
21102;BME280;10709;49.006;12.100;2023-03-19T06:23:55;48814.59;;;-146.00;82.19
21102;BME280;10709;49.006;12.100;2023-03-19T06:26:22;48777.38;;;-146.00;82.26
21102;BME280;10709;49.006;12.100;2023-03-19T06:28:49;48816.56;;;-146.00;82.37
21102;BME280;10709;49.006;12.100;2023-03-19T06:31:15;48791.09;;;-146.00;82.08
21102;BME280;10709;49.006;12.100;2023-03-19T06:33:42;48814.59;;;-146.00;81.78
21102;BME280;10709;49.006;12.100;2023-03-19T06:36:09;48820.47;;;-146.00;82.04
21102;BME280;10709;49.006;12.100;2023-03-19T06:38:36;48800.88;;;-146.00;81.84
21102;BME280;10709;49.006;12.100;2023-03-19T06:41:03;48777.38;;;-146.00;82.49
21102;BME280;10709;49.006;12.100;2023-03-19T06:43:29;48824.41;;;-146.00;82.31
21102;BME280;10709;49.006;12.100;2023-03-19T06:45:57;48816.56;;;-146.00;82.84
21102;BME280;10709;49.006;12.100;2023-03-19T06:48:23;48812.63;;;-146.00;82.78
21102;BME280;10709;49.006;12.100;2023-03-19T06:50:50;48824.41;;;-146.00;83.44
21102;BME280;10709;49.006;12.100;2023-03-19T06:53:16;48828.31;;;-146.00;84.02
21102;BME280;10709;49.006;12.100;2023-03-19T06:55:45;48828.31;;;-146.00;84.21
21102;BME280;10709;49.006;12.100;2023-03-19T06:58:12;48863.56;;;-146.00;84.18
21102;BME280;10709;49.006;12.100;2023-03-19T07:00:38;48855.75;;;-146.00;83.76
21102;BME280;10709;49.006;12.100;2023-03-19T07:03:04;48836.16;;;-146.00;83.67
21102;BME280;10709;49.006;12.100;2023-03-19T07:05:32;48849.88;;;-146.00;83.51
21102;BME280;10709;49.006;12.100;2023-03-19T07:07:59;48830.28;;;-146.00;83.41
21102;BME280;10709;49.006;12.100;2023-03-19T07:10:26;48832.22;;;-146.00;83.67
21102;BME280;10709;49.006;12.100;2023-03-19T07:12:52;48834.19;;;-146.00;83.55
21102;BME280;10709;49.006;12.100;2023-03-19T07:15:19;48840.06;;;-146.00;83.41
21102;BME280;10709;49.006;12.100;2023-03-19T07:17:47;48840.06;;;-146.00;83.43
21102;BME280;10709;49.006;12.100;2023-03-19T07:20:14;48851.81;;;-146.00;83.54
21102;BME280;10709;49.006;12.100;2023-03-19T07:22:40;48871.41;;;-146.00;83.67
21102;BME280;10709;49.006;12.100;2023-03-19T07:25:07;48855.75;;;-146.00;83.20
21102;BME280;10709;49.006;12.100;2023-03-19T07:27:34;48855.75;;;-146.00;83.25
21102;BME280;10709;49.006;12.100;2023-03-19T07:30:00;48859.66;;;-146.00;83.70
21102;BME280;10709;49.006;12.100;2023-03-19T07:32:27;48838.09;;;-146.00;82.91
21102;BME280;10709;49.006;12.100;2023-03-19T07:34:53;48847.91;;;-146.00;82.96
21102;BME280;10709;49.006;12.100;2023-03-19T07:37:20;48863.56;;;-146.00;83.39
21102;BME280;10709;49.006;12.100;2023-03-19T07:39:47;48838.09;;;-146.00;83.33
21102;BME280;10709;49.006;12.100;2023-03-19T07:42:15;48851.81;;;-146.00;83.71
21102;BME280;10709;49.006;12.100;2023-03-19T07:44:41;48836.16;;;-146.00;83.28
21102;BME280;10709;49.006;12.100;2023-03-19T07:47:08;48828.31;;;-146.00;82.85
21102;BME280;10709;49.006;12.100;2023-03-19T07:49:51;48832.22;;;-146.00;82.79
21102;BME280;10709;49.006;12.100;2023-03-19T07:52:17;48804.81;;;-146.00;82.13
21102;BME280;10709;49.006;12.100;2023-03-19T07:54:44;48818.53;;;-146.00;82.40
21102;BME280;10709;49.006;12.100;2023-03-19T07:57:11;48808.72;;;-146.00;81.90
21102;BME280;10709;49.006;12.100;2023-03-19T07:59:37;48834.19;;;-146.00;81.91
21102;BME280;10709;49.006;12.100;2023-03-19T08:02:03;48851.81;;;-146.00;83.39
21102;BME280;10709;49.006;12.100;2023-03-19T08:04:30;48840.06;;;-146.00;82.34
21102;BME280;10709;49.006;12.100;2023-03-19T08:06:56;48867.50;;;-146.00;82.80
21102;BME280;10709;49.006;12.100;2023-03-19T08:09:23;48867.50;;;-146.00;83.15
21102;BME280;10709;49.006;12.100;2023-03-19T08:11:50;48859.66;;;-146.00;82.81
21102;BME280;10709;49.006;12.100;2023-03-19T08:14:16;48859.66;;;-146.00;82.76
21102;BME280;10709;49.006;12.100;2023-03-19T08:16:47;48863.56;;;-146.00;82.10
21102;BME280;10709;49.006;12.100;2023-03-19T08:19:14;48808.72;;;-146.00;81.08
21102;BME280;10709;49.006;12.100;2023-03-19T08:21:42;48798.94;;;-146.00;81.06
21102;BME280;10709;49.006;12.100;2023-03-19T08:24:08;48851.81;;;-146.00;81.34
21102;BME280;10709;49.006;12.100;2023-03-19T08:26:34;48855.75;;;-146.00;81.04
21102;BME280;10709;49.006;12.100;2023-03-19T08:29:01;48847.91;;;-146.00;80.71
21102;BME280;10709;49.006;12.100;2023-03-19T08:31:29;48832.22;;;-146.00;80.34
21102;BME280;10709;49.006;12.100;2023-03-19T08:33:55;48834.19;;;-146.00;80.32
21102;BME280;10709;49.006;12.100;2023-03-19T08:36:25;48800.88;;;-146.00;80.39
21102;BME280;10709;49.006;12.100;2023-03-19T08:38:52;48808.72;;;-146.00;79.99
21102;BME280;10709;49.006;12.100;2023-03-19T08:41:21;48777.38;;;-146.00;78.73
21102;BME280;10709;49.006;12.100;2023-03-19T08:43:48;48785.22;;;-146.00;77.31
21102;BME280;10709;49.006;12.100;2023-03-19T08:46:14;48800.88;;;-146.00;77.89
21102;BME280;10709;49.006;12.100;2023-03-19T08:48:41;48816.56;;;-146.00;78.03
21102;BME280;10709;49.006;12.100;2023-03-19T08:51:09;48816.56;;;-146.00;78.00
21102;BME280;10709;49.006;12.100;2023-03-19T08:53:36;48806.75;;;-146.00;77.40
21102;BME280;10709;49.006;12.100;2023-03-19T08:56:05;48808.72;;;-146.00;75.56
21102;BME280;10709;49.006;12.100;2023-03-19T08:58:33;48787.19;;;-146.00;75.89
21102;BME280;10709;49.006;12.100;2023-03-19T09:01:04;48793.06;;;-146.00;75.59
21102;BME280;10709;49.006;12.100;2023-03-19T09:03:32;48757.78;;;-146.00;76.35
21102;BME280;10709;49.006;12.100;2023-03-19T09:06:00;48796.97;;;-146.00;75.46
21102;BME280;10709;49.006;12.100;2023-03-19T09:08:27;48810.69;;;-146.00;75.85
21102;BME280;10709;49.006;12.100;2023-03-19T09:10:54;48775.41;;;-146.00;75.49
21102;BME280;10709;49.006;12.100;2023-03-19T09:13:22;48789.13;;;-146.00;75.52
21102;BME280;10709;49.006;12.100;2023-03-19T09:15:49;48761.72;;;-146.00;74.23
21102;BME280;10709;49.006;12.100;2023-03-19T09:18:16;48761.72;;;-146.00;74.27
21102;BME280;10709;49.006;12.100;2023-03-19T09:20:42;48765.63;;;-146.00;73.73
21102;BME280;10709;49.006;12.100;2023-03-19T09:23:09;48761.72;;;-146.00;73.49
21102;BME280;10709;49.006;12.100;2023-03-19T09:25:35;48761.72;;;-146.00;73.38
21102;BME280;10709;49.006;12.100;2023-03-19T09:28:02;48804.81;;;-146.00;74.41
21102;BME280;10709;49.006;12.100;2023-03-19T09:30:29;48793.06;;;-146.00;75.00
21102;BME280;10709;49.006;12.100;2023-03-19T09:32:55;48777.38;;;-146.00;75.04
21102;BME280;10709;49.006;12.100;2023-03-19T09:35:22;48785.22;;;-146.00;75.41
21102;BME280;10709;49.006;12.100;2023-03-19T09:37:49;48777.38;;;-146.00;74.99
21102;BME280;10709;49.006;12.100;2023-03-19T09:40:29;48789.13;;;-146.00;75.15
21102;BME280;10709;49.006;12.100;2023-03-19T09:45:47;48796.97;;;-146.00;75.19
21102;BME280;10709;49.006;12.100;2023-03-19T09:48:19;48796.97;;;-146.00;75.24
21102;BME280;10709;49.006;12.100;2023-03-19T09:50:54;48787.19;;;-146.00;74.09
21102;BME280;10709;49.006;12.100;2023-03-19T09:54:00;48793.06;;;-146.00;74.43
21102;BME280;10709;49.006;12.100;2023-03-19T09:56:31;48773.47;;;-146.00;74.95
21102;BME280;10709;49.006;12.100;2023-03-19T09:58:58;48814.59;;;-146.00;75.40
21102;BME280;10709;49.006;12.100;2023-03-19T10:01:28;48796.97;;;-146.00;75.09
21102;BME280;10709;49.006;12.100;2023-03-19T10:06:53;48789.13;;;-146.00;75.92
21102;BME280;10709;49.006;12.100;2023-03-19T10:09:42;48796.97;;;-146.00;76.63
21102;BME280;10709;49.006;12.100;2023-03-19T10:12:33;48828.31;;;-146.00;77.96
21102;BME280;10709;49.006;12.100;2023-03-19T10:15:20;48844.00;;;-146.00;80.67
21102;BME280;10709;49.006;12.100;2023-03-19T10:26:02;48879.25;;;-146.00;81.91
21102;BME280;10709;49.006;12.100;2023-03-19T10:28:30;48898.84;;;-146.00;81.30
21102;BME280;10709;49.006;12.100;2023-03-19T10:33:40;48973.28;;;-146.00;87.79
21102;BME280;10709;49.006;12.100;2023-03-19T10:36:10;49004.63;;;-146.00;87.62
21102;BME280;10709;49.006;12.100;2023-03-19T10:38:41;48981.13;;;-146.00;90.64
21102;BME280;10709;49.006;12.100;2023-03-19T10:41:24;48977.19;;;-146.00;88.97
21102;BME280;10709;49.006;12.100;2023-03-19T10:43:59;48963.50;;;-146.00;89.03
21102;BME280;10709;49.006;12.100;2023-03-19T10:46:26;48977.19;;;-146.00;87.43
21102;BME280;10709;49.006;12.100;2023-03-19T10:48:53;48971.31;;;-146.00;86.90
21102;BME280;10709;49.006;12.100;2023-03-19T10:51:22;48941.94;;;-146.00;87.81
21102;BME280;10709;49.006;12.100;2023-03-19T10:53:52;48969.38;;;-146.00;85.40
21102;BME280;10709;49.006;12.100;2023-03-19T10:56:24;49024.22;;;-146.00;87.00
21102;BME280;10709;49.006;12.100;2023-03-19T10:59:02;48981.13;;;-146.00;87.44
21102;BME280;10709;49.006;12.100;2023-03-19T11:01:34;49004.63;;;-146.00;88.32
21102;BME280;10709;49.006;12.100;2023-03-19T11:04:16;48996.78;;;-146.00;87.52
21102;BME280;10709;49.006;12.100;2023-03-19T11:06:48;49002.66;;;-146.00;86.96
21102;BME280;10709;49.006;12.100;2023-03-19T11:09:22;49000.72;;;-146.00;87.48
21102;BME280;10709;49.006;12.100;2023-03-19T11:11:52;49010.50;;;-146.00;86.66
21102;BME280;10709;49.006;12.100;2023-03-19T11:14:23;48987.00;;;-146.00;87.37
21102;BME280;10709;49.006;12.100;2023-03-19T11:16:55;48988.94;;;-146.00;87.28
21102;BME280;10709;49.006;12.100;2023-03-19T11:19:28;48977.19;;;-146.00;85.83
21102;BME280;10709;49.006;12.100;2023-03-19T11:24:36;48934.09;;;-146.00;81.82
21102;BME280;10709;49.006;12.100;2023-03-19T11:27:04;48945.84;;;-146.00;82.14
21102;BME280;10709;49.006;12.100;2023-03-19T11:29:42;48943.91;;;-146.00;81.87
21102;BME280;10709;49.006;12.100;2023-03-19T11:32:22;48949.78;;;-146.00;81.37
21102;BME280;10709;49.006;12.100;2023-03-19T11:37:48;48922.34;;;-146.00;83.15
21102;BME280;10709;49.006;12.100;2023-03-19T11:40:27;48945.84;;;-146.00;82.51
21102;BME280;10709;49.006;12.100;2023-03-19T11:48:39;48941.94;;;-146.00;80.44
21102;BME280;10709;49.006;12.100;2023-03-19T11:51:18;48916.47;;;-146.00;80.34
21102;BME280;10709;49.006;12.100;2023-03-19T11:54:43;48953.69;;;-146.00;81.20
21102;BME280;10709;49.006;12.100;2023-03-19T11:57:03;48918.44;;;-146.00;80.78
21102;BME280;10709;49.006;12.100;2023-03-19T11:59:52;48902.75;;;-146.00;77.86
21102;BME280;10709;49.006;12.100;2023-03-19T12:05:19;48879.25;;;-146.00;77.88
21102;BME280;10709;49.006;12.100;2023-03-19T12:10:51;48863.56;;;-146.00;78.97
21102;BME280;10709;49.006;12.100;2023-03-19T12:18:58;48871.41;;;-146.00;77.61
21102;BME280;10709;49.006;12.100;2023-03-19T12:30:07;48836.16;;;-146.00;75.26
21102;BME280;10709;49.006;12.100;2023-03-19T12:32:44;48859.66;;;-146.00;76.19
21102;BME280;10709;49.006;12.100;2023-03-19T12:35:20;48847.91;;;-146.00;76.97
21102;BME280;10709;49.006;12.100;2023-03-19T12:38:11;48904.72;;;-146.00;77.59
21102;BME280;10709;49.006;12.100;2023-03-19T12:40:42;48855.75;;;-146.00;75.58
21102;BME280;10709;49.006;12.100;2023-03-19T12:43:22;48806.75;;;-146.00;75.37
21102;BME280;10709;49.006;12.100;2023-03-19T12:45:58;48863.56;;;-146.00;76.74
21102;BME280;10709;49.006;12.100;2023-03-19T12:48:34;48863.56;;;-146.00;75.98
21102;BME280;10709;49.006;12.100;2023-03-19T12:51:07;48847.91;;;-146.00;75.69
21102;BME280;10709;49.006;12.100;2023-03-19T12:53:44;48828.31;;;-146.00;74.37
21102;BME280;10709;49.006;12.100;2023-03-19T12:56:18;48896.88;;;-146.00;76.33
21102;BME280;10709;49.006;12.100;2023-03-19T12:58:55;48824.41;;;-146.00;75.63
21102;BME280;10709;49.006;12.100;2023-03-19T13:01:32;48844.00;;;-146.00;75.93
21102;BME280;10709;49.006;12.100;2023-03-19T13:04:39;48883.16;;;-146.00;75.35
21102;BME280;10709;49.006;12.100;2023-03-19T13:07:02;48847.91;;;-146.00;74.08
21102;BME280;10709;49.006;12.100;2023-03-19T13:09:57;48840.06;;;-146.00;73.57
21102;BME280;10709;49.006;12.100;2023-03-19T13:12:26;48851.81;;;-146.00;74.86
21102;BME280;10709;49.006;12.100;2023-03-19T13:20:27;48855.75;;;-146.00;73.20
21102;BME280;10709;49.006;12.100;2023-03-19T13:23:00;48840.06;;;-146.00;73.95
21102;BME280;10709;49.006;12.100;2023-03-19T13:25:40;48824.41;;;-146.00;73.09
21102;BME280;10709;49.006;12.100;2023-03-19T13:28:15;48830.28;;;-146.00;72.68
21102;BME280;10709;49.006;12.100;2023-03-19T13:33:30;48847.91;;;-146.00;73.29
21102;BME280;10709;49.006;12.100;2023-03-19T13:36:01;48824.41;;;-146.00;72.63
21102;BME280;10709;49.006;12.100;2023-03-19T13:38:39;48851.81;;;-146.00;71.94
21102;BME280;10709;49.006;12.100;2023-03-19T13:46:48;48793.06;;;-146.00;70.79
21102;BME280;10709;49.006;12.100;2023-03-19T13:51:47;48793.06;;;-146.00;70.94